Time;durP1;ratioP1;P1;durP2;ratioP2;P2;SDS_P1;SDS_P2;PMS_P1;PMS_P2;Temp;Humidity;BMP_temperature;BMP_pressure;BME280_temperature;BME280_humidity;BME280_pressure;Samples;Min_cycle;Max_cycle;Signal;HPM_P1;HPM_P2
2021/08/24 00:00:55;;;;;;;8.32;5.70;;;29.30;99.90;;;;;;4196280;28;20055;-65
2021/08/24 00:02:59;;;;;;;8.07;5.47;;;29.20;99.90;;;;;;4198163;28;20554;-64
2021/08/24 00:05:08;;;;;;;7.20;5.55;;;29.40;99.90;;;;;;4203918;28;20084;-64
2021/08/24 00:07:12;;;;;;;8.52;5.35;;;29.50;99.90;;;;;;4194739;28;20449;-64
2021/08/24 00:09:19;;;;;;;9.05;5.50;;;29.50;99.90;;;;;;4195288;28;20057;-64
2021/08/24 00:11:23;;;;;;;8.13;5.35;;;29.60;99.90;;;;;;4195771;28;20074;-64
2021/08/24 00:13:28;;;;;;;9.38;5.85;;;29.40;99.90;;;;;;4194684;28;20056;-65
2021/08/24 00:15:33;;;;;;;7.47;5.30;;;29.30;99.90;;;;;;4195924;28;20062;-65
2021/08/24 00:17:39;;;;;;;7.93;5.72;;;29.40;99.90;;;;;;4195742;28;20052;-64
2021/08/24 00:19:44;;;;;;;8.93;5.05;;;29.30;99.90;;;;;;4196023;28;20046;-64
2021/08/24 00:21:49;;;;;;;9.05;5.30;;;29.40;99.90;;;;;;4195082;28;20036;-63
2021/08/24 00:23:53;;;;;;;8.68;6.50;;;29.50;99.90;;;;;;4195861;28;20047;-64
2021/08/24 00:26:11;;;;;;;6.00;4.95;;;29.40;99.90;;;;;;4183332;28;20123;-66
2021/08/24 00:28:16;;;;;;;6.97;5.40;;;29.40;99.90;;;;;;4196662;28;20075;-64
2021/08/24 00:30:24;;;;;;;8.77;5.90;;;29.50;99.90;;;;;;4194926;28;20044;-65
2021/08/24 00:32:31;;;;;;;9.68;5.75;;;29.70;99.90;;;;;;4193504;28;20091;-64
2021/08/24 00:34:35;;;;;;;9.18;6.35;;;29.90;99.90;;;;;;4161035;28;20142;-65
2021/08/24 00:36:39;;;;;;;7.55;5.55;;;29.90;99.90;;;;;;4184253;28;20130;-65
2021/08/24 00:38:44;;;;;;;8.07;6.07;;;29.90;99.90;;;;;;4177526;28;20080;-63
2021/08/24 00:41:01;;;;;;;11.43;6.63;;;29.90;99.90;;;;;;4194957;28;20041;-65
2021/08/24 00:43:10;;;;;;;8.18;5.93;;;29.80;99.90;;;;;;4169479;28;20041;-64
2021/08/24 00:45:17;;;;;;;8.10;5.97;;;29.80;99.90;;;;;;4195826;28;20046;-65
2021/08/24 00:47:23;;;;;;;11.48;6.93;;;29.70;99.90;;;;;;4195736;28;20070;-65
2021/08/24 00:49:28;;;;;;;10.65;6.57;;;29.50;99.90;;;;;;4162631;28;20057;-65
2021/08/24 00:51:35;;;;;;;12.55;6.15;;;29.50;99.90;;;;;;4195893;28;20109;-62
2021/08/24 00:53:39;;;;;;;10.13;6.80;;;29.50;99.90;;;;;;4194175;28;20391;-64
2021/08/24 00:55:45;;;;;;;10.05;7.85;;;29.50;99.90;;;;;;4195107;28;20040;-65
2021/08/24 00:57:53;;;;;;;10.73;6.20;;;29.70;99.90;;;;;;4179416;28;20048;-64
2021/08/24 00:59:58;;;;;;;12.30;6.75;;;29.70;99.90;;;;;;4178745;28;20041;-64
2021/08/24 01:02:08;;;;;;;8.60;6.20;;;29.60;99.90;;;;;;4195668;28;20517;-64
2021/08/24 01:04:13;;;;;;;11.52;9.00;;;29.70;99.90;;;;;;4177466;28;20059;-64
2021/08/24 01:06:37;;;;;;;86.70;58.90;;;29.70;99.90;;;;;;4195475;28;20086;-64
2021/08/24 01:08:57;;;;;;;35.08;26.58;;;29.60;99.90;;;;;;4180101;28;20410;-64
2021/08/24 01:11:17;;;;;;;49.80;32.08;;;29.60;99.90;;;;;;4149254;28;20236;-62
2021/08/24 01:13:34;;;;;;;62.15;36.33;;;29.70;99.90;;;;;;4199451;28;20476;-64
2021/08/24 01:15:40;;;;;;;22.05;14.68;;;29.80;99.90;;;;;;4185465;28;20127;-63
2021/08/24 01:18:08;;;;;;;24.75;16.58;;;29.80;99.90;;;;;;4178634;28;20045;-62
2021/08/24 01:20:38;;;;;;;21.45;13.43;;;30.00;99.90;;;;;;4186538;28;20086;-65
2021/08/24 01:23:02;;;;;;;15.73;8.80;;;30.10;99.90;;;;;;4182437;28;20068;-64
2021/08/24 01:25:40;;;;;;;11.88;8.13;;;30.00;99.90;;;;;;4166795;28;20271;-64
2021/08/24 01:28:02;;;;;;;10.85;7.75;;;30.10;99.90;;;;;;4181932;28;20424;-65
2021/08/24 01:30:19;;;;;;;10.93;8.23;;;30.30;99.90;;;;;;4184567;28;20147;-65
2021/08/24 01:32:50;;;;;;;9.05;7.18;;;30.50;99.90;;;;;;4184327;28;20049;-65
2021/08/24 01:35:06;;;;;;;11.30;7.60;;;30.60;99.90;;;;;;4186256;28;20204;-65
2021/08/24 01:37:19;;;;;;;9.63;6.88;;;30.50;99.90;;;;;;4184038;28;20049;-64
2021/08/24 01:39:26;;;;;;;11.07;6.43;;;30.20;99.90;;;;;;4163153;28;20408;-64
2021/08/24 01:41:59;;;;;;;10.80;7.60;;;30.20;99.90;;;;;;4179830;28;20045;-64
2021/08/24 01:44:16;;;;;;;11.27;7.75;;;30.00;99.90;;;;;;4183265;28;20049;-65
2021/08/24 01:46:47;;;;;;;10.00;7.43;;;30.00;99.90;;;;;;4176692;28;20113;-66
2021/08/24 01:49:00;;;;;;;8.73;6.90;;;30.20;99.90;;;;;;4185724;28;20461;-66
2021/08/24 01:51:15;;;;;;;8.82;7.40;;;30.50;99.90;;;;;;4186028;28;20044;-65
2021/08/24 01:53:43;;;;;;;11.23;7.15;;;30.40;99.90;;;;;;4187685;28;20128;-64
2021/08/24 01:56:14;;;;;;;11.90;7.80;;;30.40;99.90;;;;;;4186664;28;20045;-65
2021/08/24 01:58:41;;;;;;;13.10;7.68;;;30.10;99.90;;;;;;4184228;28;20173;-65
2021/08/24 02:00:47;;;;;;;10.20;7.50;;;30.10;99.90;;;;;;4154608;28;20459;-63
2021/08/24 02:03:04;;;;;;;10.57;7.18;;;30.20;99.90;;;;;;4170995;28;20065;-64
2021/08/24 02:05:11;;;;;;;10.45;6.72;;;30.20;99.90;;;;;;4184462;28;20068;-64
2021/08/24 02:07:17;;;;;;;11.80;7.30;;;30.50;99.90;;;;;;4186493;28;20053;-65
2021/08/24 02:09:33;;;;;;;14.30;7.40;;;30.40;99.90;;;;;;4187720;28;20143;-64
2021/08/24 02:11:37;;;;;;;9.77;7.18;;;30.40;99.90;;;;;;4190768;28;20090;-64
2021/08/24 02:13:47;;;;;;;9.30;6.97;;;30.70;99.90;;;;;;4187727;28;20624;-64
2021/08/24 02:15:54;;;;;;;10.48;7.32;;;30.60;99.90;;;;;;4171738;28;20578;-65
2021/08/24 02:17:59;;;;;;;9.23;7.63;;;30.70;99.90;;;;;;4192169;28;20417;-65
2021/08/24 02:20:15;;;;;;;10.73;6.75;;;30.70;99.90;;;;;;4159684;28;20049;-65
2021/08/24 02:22:31;;;;;;;13.93;8.60;;;31.00;99.90;;;;;;4158946;28;20597;-65
2021/08/24 02:24:42;;;;;;;11.60;7.40;;;31.30;99.90;;;;;;4143771;28;20049;-65
2021/08/24 02:26:47;;;;;;;13.32;7.00;;;31.20;99.90;;;;;;4126797;28;20062;-66
2021/08/24 02:28:54;;;;;;;8.98;6.85;;;31.40;99.20;;;;;;4142998;28;20100;-67
2021/08/24 02:31:29;;;;;;;9.55;7.05;;;31.30;99.30;;;;;;4126874;28;20132;-64
2021/08/24 02:33:41;;;;;;;11.30;6.95;;;31.40;98.90;;;;;;4113485;28;20065;-65
2021/08/24 02:35:54;;;;;;;11.13;6.93;;;31.70;98.30;;;;;;4124770;28;20217;-68
2021/08/24 02:38:04;;;;;;;13.55;6.43;;;32.00;97.80;;;;;;4113948;28;20053;-66
2021/08/24 02:40:21;;;;;;;8.18;5.95;;;32.10;97.40;;;;;;4146543;28;20141;-65
2021/08/24 02:42:47;;;;;;;10.68;6.90;;;32.20;97.00;;;;;;4132664;28;20047;-63
2021/08/24 02:45:08;;;;;;;8.25;6.18;;;31.90;97.20;;;;;;4145627;28;20057;-66
2021/08/24 02:47:13;;;;;;;13.68;7.28;;;31.90;97.50;;;;;;4111045;28;20469;-66
2021/08/24 02:49:26;;;;;;;13.30;6.57;;;31.80;97.70;;;;;;4128000;28;20148;-66
2021/08/24 02:51:52;;;;;;;11.60;5.88;;;31.90;97.00;;;;;;4146920;28;20103;-65
2021/08/24 02:54:00;;;;;;;7.40;5.78;;;32.10;96.80;;;;;;4154315;28;20060;-65
2021/08/24 02:56:08;;;;;;;9.80;7.10;;;32.30;96.40;;;;;;4140970;28;20131;-66
2021/08/24 02:58:13;;;;;;;11.20;6.75;;;32.40;96.60;;;;;;4132411;28;20112;-66
2021/08/24 03:00:17;;;;;;;10.07;6.93;;;32.40;96.90;;;;;;4172587;28;20060;-67
2021/08/24 03:02:22;;;;;;;10.32;6.53;;;32.40;97.00;;;;;;4183601;28;20128;-64
2021/08/24 03:04:27;;;;;;;8.70;6.32;;;32.40;97.20;;;;;;4182655;28;20049;-64
2021/08/24 03:06:32;;;;;;;7.32;6.40;;;32.40;96.80;;;;;;4184567;28;20155;-65
2021/08/24 03:08:37;;;;;;;7.95;6.18;;;32.40;96.50;;;;;;4170590;28;20509;-65
2021/08/24 03:10:43;;;;;;;8.38;5.85;;;32.00;96.90;;;;;;4161227;28;20075;-66
2021/08/24 03:13:00;;;;;;;11.15;6.53;;;32.00;96.90;;;;;;4182005;28;20083;-65
2021/08/24 03:15:16;;;;;;;9.57;6.22;;;32.20;97.00;;;;;;4178334;28;20045;-65
2021/08/24 03:17:40;;;;;;;8.82;6.13;;;32.40;96.70;;;;;;4178107;28;20045;-62
2021/08/24 03:19:47;;;;;;;8.57;6.20;;;32.20;96.00;;;;;;4178024;28;20407;-64
2021/08/24 03:21:51;;;;;;;8.32;6.13;;;32.20;96.10;;;;;;4159053;28;20139;-64
2021/08/24 03:23:56;;;;;;;15.52;7.75;;;32.20;95.90;;;;;;4129166;28;20069;-65
2021/08/24 03:26:01;;;;;;;8.30;6.38;;;32.10;96.20;;;;;;4161088;28;20501;-64
2021/08/24 03:28:06;;;;;;;9.48;6.57;;;32.30;95.80;;;;;;4160180;28;20088;-65
2021/08/24 03:30:13;;;;;;;9.85;5.95;;;32.30;96.30;;;;;;4127537;28;20062;-64
2021/08/24 03:32:17;;;;;;;7.15;5.63;;;32.40;96.30;;;;;;4127618;28;20051;-64
2021/08/24 03:34:22;;;;;;;9.30;6.32;;;32.40;96.00;;;;;;4128279;28;20457;-64
2021/08/24 03:36:27;;;;;;;8.88;6.10;;;32.50;95.60;;;;;;4126942;28;20100;-64
2021/08/24 03:38:31;;;;;;;12.02;6.55;;;32.40;95.70;;;;;;4126022;28;20446;-63
2021/08/24 03:40:35;;;;;;;10.73;5.72;;;32.50;95.90;;;;;;4126065;28;20521;-65
2021/08/24 03:42:40;;;;;;;12.77;6.78;;;32.70;95.70;;;;;;4124965;28;20113;-64
2021/08/24 03:44:46;;;;;;;11.70;6.95;;;32.90;95.40;;;;;;4109611;28;20047;-65
2021/08/24 03:46:50;;;;;;;13.48;6.80;;;33.10;95.30;;;;;;4126099;28;20484;-65
2021/08/24 03:48:55;;;;;;;11.20;6.25;;;33.20;95.00;;;;;;4124718;28;20090;-65
2021/08/24 03:50:59;;;;;;;10.77;6.65;;;33.10;95.10;;;;;;4124429;28;20058;-63
2021/08/24 03:53:04;;;;;;;14.93;7.28;;;33.00;95.20;;;;;;4138778;28;20057;-64
2021/08/24 03:55:09;;;;;;;16.70;7.00;;;33.00;95.20;;;;;;4160326;28;20053;-65
2021/08/24 03:57:13;;;;;;;11.68;6.78;;;33.10;95.10;;;;;;4163022;28;20597;-64
2021/08/24 03:59:17;;;;;;;11.13;6.53;;;33.30;94.60;;;;;;4161866;28;20046;-66
2021/08/24 04:01:22;;;;;;;11.52;7.32;;;33.40;94.10;;;;;;4182383;28;20551;-65
2021/08/24 04:03:28;;;;;;;11.13;6.03;;;33.50;94.00;;;;;;4194503;28;20332;-65
2021/08/24 04:05:32;;;;;;;13.77;6.30;;;33.60;93.70;;;;;;4179867;28;20127;-66
2021/08/24 04:07:37;;;;;;;12.18;6.03;;;33.70;93.40;;;;;;4194262;28;20071;-64
2021/08/24 04:09:42;;;;;;;9.35;6.50;;;33.80;93.10;;;;;;4166325;28;20049;-65
2021/08/24 04:11:47;;;;;;;11.93;5.93;;;33.90;93.00;;;;;;4195364;28;20067;-66
2021/08/24 04:13:51;;;;;;;9.30;6.03;;;33.90;92.70;;;;;;4193784;28;20130;-65
2021/08/24 04:15:56;;;;;;;6.88;5.35;;;34.00;92.30;;;;;;4194323;28;20060;-65
2021/08/24 04:18:00;;;;;;;9.15;5.85;;;33.90;92.30;;;;;;4194854;28;20122;-66
2021/08/24 04:20:06;;;;;;;7.32;5.38;;;33.80;92.20;;;;;;4206369;28;20159;-65
2021/08/24 04:22:12;;;;;;;6.88;5.07;;;33.70;92.00;;;;;;4197501;28;20111;-66
2021/08/24 04:24:17;;;;;;;10.57;5.88;;;33.70;92.20;;;;;;4177110;28;20053;-66
2021/08/24 04:26:21;;;;;;;9.00;5.88;;;33.60;91.60;;;;;;4177306;28;20049;-66
2021/08/24 04:28:26;;;;;;;9.27;5.35;;;33.50;91.80;;;;;;4191854;28;20089;-65
2021/08/24 04:30:30;;;;;;;8.52;5.90;;;33.70;91.70;;;;;;4209989;28;20051;-64
2021/08/24 04:32:36;;;;;;;7.85;5.70;;;33.90;92.00;;;;;;4208884;28;20048;-65
2021/08/24 04:34:40;;;;;;;6.57;5.05;;;33.90;92.00;;;;;;4188981;28;20166;-65
2021/08/24 04:36:45;;;;;;;8.93;6.05;;;34.00;91.90;;;;;;4160874;28;20192;-65
2021/08/24 04:38:49;;;;;;;7.03;5.20;;;34.10;91.50;;;;;;4171243;28;20086;-65
2021/08/24 04:40:54;;;;;;;8.07;5.78;;;34.10;91.40;;;;;;4194605;28;20064;-65
2021/08/24 04:42:58;;;;;;;10.10;6.28;;;34.10;90.90;;;;;;4193727;28;20128;-64
2021/08/24 04:45:03;;;;;;;10.45;5.28;;;34.20;90.90;;;;;;4190693;28;20049;-65
2021/08/24 04:47:08;;;;;;;8.00;5.45;;;34.10;91.00;;;;;;4196096;28;20072;-68
2021/08/24 04:49:12;;;;;;;10.35;5.45;;;34.10;91.50;;;;;;4199612;28;20066;-68
2021/08/24 04:51:17;;;;;;;7.20;5.72;;;34.00;91.40;;;;;;4176874;28;20055;-67
2021/08/24 04:53:24;;;;;;;12.35;6.20;;;34.20;91.90;;;;;;4174007;28;20160;-68
2021/08/24 04:55:30;;;;;;;8.85;6.13;;;34.20;91.40;;;;;;4194140;28;20045;-68
2021/08/24 04:57:37;;;;;;;11.38;6.07;;;34.20;90.80;;;;;;4200724;28;20099;-67
2021/08/24 04:59:42;;;;;;;9.68;6.18;;;34.00;91.10;;;;;;4193738;28;20053;-69
2021/08/24 05:01:47;;;;;;;8.32;5.95;;;34.00;91.60;;;;;;4194097;28;20051;-66
2021/08/24 05:03:52;;;;;;;8.15;5.63;;;34.20;91.90;;;;;;4193884;28;20043;-67
2021/08/24 05:05:57;;;;;;;9.20;5.97;;;34.30;91.50;;;;;;4194107;28;20048;-67
2021/08/24 05:08:01;;;;;;;7.22;5.57;;;34.40;91.40;;;;;;4194393;28;20070;-68
2021/08/24 05:10:07;;;;;;;8.50;5.65;;;34.60;91.00;;;;;;4191298;28;20052;-62
2021/08/24 05:12:12;;;;;;;10.75;5.47;;;34.70;91.20;;;;;;4210061;28;20486;-67
2021/08/24 05:14:16;;;;;;;10.95;5.97;;;34.70;91.10;;;;;;4195134;28;20053;-67
2021/08/24 05:16:20;;;;;;;12.02;5.85;;;34.70;90.20;;;;;;4188715;28;20069;-67
2021/08/24 05:18:25;;;;;;;12.63;5.57;;;34.70;90.60;;;;;;4164040;28;20062;-67
2021/08/24 05:20:33;;;;;;;10.02;5.60;;;34.50;90.90;;;;;;4198727;28;20051;-67
2021/08/24 05:22:37;;;;;;;10.68;5.22;;;34.30;91.20;;;;;;4200400;28;20051;-68
2021/08/24 05:24:42;;;;;;;8.77;5.05;;;34.40;91.00;;;;;;4163921;28;20525;-67
2021/08/24 05:26:47;;;;;;;8.73;5.10;;;34.40;90.50;;;;;;4197896;28;20062;-67
2021/08/24 05:28:51;;;;;;;8.93;5.65;;;34.60;89.90;;;;;;4203494;28;20043;-66
2021/08/24 05:30:56;;;;;;;6.72;4.10;;;34.70;89.20;;;;;;4197848;28;20076;-67
2021/08/24 05:33:06;;;;;;;6.22;4.10;;;34.70;87.80;;;;;;4198073;28;20402;-67
2021/08/24 05:35:12;;;;;;;7.95;4.82;;;34.60;85.50;;;;;;4170877;28;20053;-67
2021/08/24 05:37:22;;;;;;;6.45;4.80;;;34.50;85.40;;;;;;4173941;28;20132;-67
2021/08/24 05:39:50;;;;;;;6.22;4.25;;;34.30;85.50;;;;;;4201538;28;20053;-68
2021/08/24 05:42:14;;;;;;;5.20;3.83;;;34.40;85.00;;;;;;4186701;28;20054;-69
2021/08/24 05:44:21;;;;;;;6.32;4.05;;;34.50;83.60;;;;;;4199773;28;20045;-68
2021/08/24 05:46:26;;;;;;;7.85;4.72;;;34.60;84.70;;;;;;4201103;28;20098;-68
2021/08/24 05:48:31;;;;;;;5.90;4.30;;;34.70;84.70;;;;;;4201951;28;20044;-69
2021/08/24 05:50:41;;;;;;;7.28;4.22;;;34.60;83.90;;;;;;4187877;28;20048;-67
2021/08/24 05:52:45;;;;;;;7.00;4.40;;;34.80;83.90;;;;;;4198699;28;20045;-66
2021/08/24 05:54:50;;;;;;;7.72;4.35;;;34.80;84.50;;;;;;4198055;28;20068;-67
2021/08/24 05:56:55;;;;;;;9.02;4.78;;;34.70;84.50;;;;;;4198356;28;20150;-66
2021/08/24 05:58:59;;;;;;;6.28;4.75;;;34.60;85.20;;;;;;4201193;28;20534;-66
2021/08/24 06:01:07;;;;;;;10.00;5.28;;;34.70;86.40;;;;;;4197993;28;20049;-67
2021/08/24 06:03:12;;;;;;;9.15;5.28;;;34.70;86.70;;;;;;4181194;28;20062;-67
2021/08/24 06:05:17;;;;;;;6.22;4.63;;;34.70;86.10;;;;;;4179856;28;20113;-67
2021/08/24 06:07:21;;;;;;;6.80;4.32;;;34.70;85.10;;;;;;4198241;28;20067;-66
2021/08/24 06:09:26;;;;;;;6.70;4.47;;;34.70;85.30;;;;;;4165039;28;20045;-66
2021/08/24 06:11:33;;;;;;;10.20;4.78;;;34.80;84.80;;;;;;4164200;28;20061;-68
2021/08/24 06:13:37;;;;;;;5.72;4.35;;;35.00;83.80;;;;;;4207104;28;20043;-68
2021/08/24 06:15:42;;;;;;;7.80;4.57;;;35.10;83.60;;;;;;4185312;28;20152;-66
2021/08/24 06:17:47;;;;;;;7.13;5.20;;;34.90;83.30;;;;;;4197892;28;20135;-67
2021/08/24 06:19:52;;;;;;;8.50;4.80;;;34.80;83.70;;;;;;4197388;28;20131;-67
2021/08/24 06:21:58;;;;;;;6.60;4.30;;;34.70;84.80;;;;;;4198887;28;20049;-68
2021/08/24 06:24:09;;;;;;;7.82;5.22;;;34.60;85.10;;;;;;4169198;28;20076;-68
2021/08/24 06:26:20;;;;;;;8.45;4.30;;;34.80;84.70;;;;;;4204112;28;20072;-70
2021/08/24 06:28:33;;;;;;;6.78;4.43;;;35.00;84.50;;;;;;4199092;28;20054;-67
2021/08/24 06:30:43;;;;;;;6.50;4.85;;;35.00;83.50;;;;;;4190111;28;20076;-68
2021/08/24 06:32:53;;;;;;;7.47;4.68;;;35.00;83.60;;;;;;4146773;28;20149;-67
2021/08/24 06:34:58;;;;;;;8.20;4.82;;;35.10;83.50;;;;;;4185093;28;20534;-66
2021/08/24 06:37:04;;;;;;;7.95;5.22;;;35.20;83.00;;;;;;4164236;28;20096;-68
2021/08/24 06:39:16;;;;;;;5.53;4.40;;;35.20;83.60;;;;;;4182092;28;20049;-68
2021/08/24 06:41:22;;;;;;;6.63;4.90;;;35.20;83.00;;;;;;4181191;28;20053;-65
2021/08/24 06:43:40;;;;;;;5.65;4.47;;;35.20;83.00;;;;;;4192970;28;20068;-67
2021/08/24 06:45:45;;;;;;;8.30;4.30;;;35.20;83.20;;;;;;4192920;28;20502;-66
2021/08/24 06:47:50;;;;;;;5.85;3.95;;;35.30;83.00;;;;;;4196711;28;20057;-68
2021/08/24 06:49:55;;;;;;;7.55;4.13;;;35.10;80.50;;;;;;4197981;28;20043;-68
2021/08/24 06:52:03;;;;;;;6.40;4.10;;;35.10;81.60;;;;;;4197057;28;20052;-67
2021/08/24 06:54:08;;;;;;;5.80;3.97;;;35.20;80.80;;;;;;4192391;28;20072;-67
2021/08/24 06:56:15;;;;;;;5.65;4.07;;;35.40;80.60;;;;;;4196647;28;20044;-69
2021/08/24 06:58:25;;;;;;;5.95;3.80;;;35.50;80.00;;;;;;4192792;28;20064;-66
2021/08/24 07:00:30;;;;;;;6.65;3.65;;;35.50;79.90;;;;;;4181128;28;20053;-67
2021/08/24 07:02:38;;;;;;;6.28;3.92;;;35.50;79.70;;;;;;4195576;28;20074;-67
2021/08/24 07:04:43;;;;;;;4.63;3.72;;;35.40;79.30;;;;;;4180769;28;20067;-67
2021/08/24 07:06:50;;;;;;;4.82;3.47;;;35.40;79.60;;;;;;4182598;28;20077;-67
2021/08/24 07:08:56;;;;;;;7.82;4.40;;;35.60;79.30;;;;;;4170123;28;20521;-65
2021/08/24 07:11:01;;;;;;;5.20;3.83;;;35.70;78.90;;;;;;4189010;28;20058;-66
2021/08/24 07:13:06;;;;;;;6.60;3.58;;;35.80;77.90;;;;;;4177843;28;20448;-67
2021/08/24 07:15:15;;;;;;;4.80;3.75;;;35.80;78.00;;;;;;4183108;28;20072;-67
2021/08/24 07:17:23;;;;;;;5.68;3.80;;;35.90;77.70;;;;;;4166789;28;20472;-67
2021/08/24 07:19:28;;;;;;;5.78;3.80;;;35.90;78.80;;;;;;4161743;28;20053;-66
2021/08/24 07:21:32;;;;;;;5.88;3.65;;;35.90;78.50;;;;;;4185473;28;20056;-67
2021/08/24 07:23:37;;;;;;;6.00;4.38;;;36.00;78.20;;;;;;4191377;28;20052;-67
2021/08/24 07:25:41;;;;;;;7.05;4.53;;;36.10;77.40;;;;;;4192466;28;20528;-66
2021/08/24 07:27:46;;;;;;;6.85;4.25;;;36.10;76.10;;;;;;4163846;28;20036;-67
2021/08/24 07:29:51;;;;;;;7.10;3.90;;;36.00;76.40;;;;;;4161291;28;20050;-67
2021/08/24 07:31:56;;;;;;;5.35;3.88;;;35.90;75.80;;;;;;4151099;28;20042;-66
2021/08/24 07:34:00;;;;;;;8.32;3.95;;;35.70;76.30;;;;;;4181954;28;20040;-66
2021/08/24 07:36:05;;;;;;;6.50;3.60;;;35.60;76.70;;;;;;4192593;28;20070;-65
2021/08/24 07:38:10;;;;;;;5.55;3.72;;;35.50;77.40;;;;;;4196139;28;20071;-68
2021/08/24 07:40:15;;;;;;;5.20;3.10;;;35.40;78.20;;;;;;4181209;28;20132;-65
2021/08/24 07:42:20;;;;;;;4.80;3.13;;;35.40;78.20;;;;;;4196126;28;20051;-67
2021/08/24 07:44:26;;;;;;;6.88;2.63;;;35.10;77.70;;;;;;4196128;28;20561;-67
2021/08/24 07:46:31;;;;;;;5.45;1.92;;;34.60;78.80;;;;;;4190503;28;20040;-67
2021/08/24 07:48:36;;;;;;;8.85;2.63;;;34.20;80.20;;;;;;4199584;28;20052;-67
2021/08/24 07:50:43;;;;;;;6.03;2.13;;;34.00;80.00;;;;;;4213390;28;20416;-67
2021/08/24 07:52:50;;;;;;;7.55;2.63;;;33.70;80.40;;;;;;4200812;28;20067;-64
2021/08/24 07:54:55;;;;;;;10.38;2.00;;;33.50;81.50;;;;;;4197572;28;20052;-67
2021/08/24 07:57:00;;;;;;;4.88;1.65;;;33.30;81.90;;;;;;4169387;28;20123;-67
2021/08/24 07:59:06;;;;;;;4.35;1.65;;;33.00;82.20;;;;;;4205764;28;20136;-66
2021/08/24 08:01:14;;;;;;;12.20;4.35;;;33.00;82.50;;;;;;4204258;28;20052;-67
2021/08/24 08:03:20;;;;;;;4.72;1.90;;;32.80;82.80;;;;;;4204215;28;20410;-67
2021/08/24 08:05:27;;;;;;;5.85;2.20;;;32.50;83.20;;;;;;4167141;28;20063;-67
2021/08/24 08:07:32;;;;;;;7.82;4.80;;;32.10;83.00;;;;;;4179164;28;20060;-67
2021/08/24 08:09:37;;;;;;;5.75;1.92;;;32.10;82.60;;;;;;4200780;28;20071;-67
2021/08/24 08:11:41;;;;;;;5.20;1.85;;;31.90;82.30;;;;;;4204626;28;20507;-69
2021/08/24 08:13:46;;;;;;;5.85;1.42;;;31.80;83.00;;;;;;4201048;28;20041;-66
2021/08/24 08:15:51;;;;;;;6.13;1.52;;;31.60;84.70;;;;;;4202736;28;20044;-66
2021/08/24 08:17:58;;;;;;;7.07;1.70;;;31.70;86.40;;;;;;4197835;28;20052;-66
2021/08/24 08:20:04;;;;;;;3.47;1.58;;;31.70;86.90;;;;;;4204323;28;20048;-65
2021/08/24 08:22:09;;;;;;;4.72;3.53;;;31.80;87.70;;;;;;4182853;28;20106;-67
2021/08/24 08:24:13;;;;;;;7.32;4.07;;;31.80;88.30;;;;;;4170726;28;20037;-67
2021/08/24 08:26:18;;;;;;;10.43;6.88;;;31.70;89.70;;;;;;4186046;28;20060;-66
2021/08/24 08:28:23;;;;;;;7.57;4.80;;;31.70;90.30;;;;;;4194358;28;20609;-68
2021/08/24 08:30:29;;;;;;;6.05;2.20;;;31.60;90.40;;;;;;4195320;28;20667;-66
2021/08/24 08:32:35;;;;;;;3.80;1.80;;;31.50;90.60;;;;;;4176929;28;20135;-67
2021/08/24 08:34:40;;;;;;;7.45;3.33;;;31.40;90.90;;;;;;4160436;28;20432;-68
2021/08/24 08:36:46;;;;;;;4.15;1.88;;;31.40;90.90;;;;;;4176570;28;20120;-67
2021/08/24 08:38:50;;;;;;;4.10;1.80;;;31.30;91.20;;;;;;4174489;28;20053;-66
2021/08/24 08:41:15;;;;;;;4.00;2.25;;;31.30;91.40;;;;;;4163330;28;20213;-65
2021/08/24 08:43:32;;;;;;;3.42;1.95;;;31.20;91.80;;;;;;4184236;28;20080;-67
2021/08/24 08:45:48;;;;;;;3.63;2.00;;;31.20;91.90;;;;;;4183867;28;20051;-66
2021/08/24 08:48:19;;;;;;;5.15;1.92;;;31.10;92.40;;;;;;4167397;28;20041;-66
2021/08/24 08:50:41;;;;;;;3.03;1.90;;;31.20;92.60;;;;;;4165287;28;20055;-66
2021/08/24 08:52:51;;;;;;;5.50;3.03;;;31.20;92.50;;;;;;4187582;28;20095;-67
2021/08/24 08:55:03;;;;;;;6.57;2.42;;;31.10;91.70;;;;;;4171818;28;20465;-65
2021/08/24 08:57:10;;;;;;;4.50;2.22;;;30.80;92.20;;;;;;4185876;28;20045;-66
2021/08/24 08:59:28;;;;;;;4.85;2.45;;;30.50;93.10;;;;;;4186480;28;20060;-66
2021/08/24 09:01:57;;;;;;;5.35;2.70;;;30.60;93.30;;;;;;4186557;28;20459;-66
2021/08/24 09:04:21;;;;;;;5.80;2.83;;;30.70;93.20;;;;;;4170115;28;20083;-66
2021/08/24 09:06:27;;;;;;;3.88;2.70;;;30.60;93.60;;;;;;4202060;28;20094;-66
2021/08/24 09:08:31;;;;;;;5.32;2.42;;;30.80;93.70;;;;;;4204169;28;20095;-67
2021/08/24 09:10:39;;;;;;;4.03;2.72;;;30.90;94.30;;;;;;4129220;28;20404;-66
2021/08/24 09:12:47;;;;;;;4.15;2.78;;;31.00;94.20;;;;;;4127278;28;20077;-64
2021/08/24 09:14:54;;;;;;;5.32;2.67;;;30.90;93.90;;;;;;4129976;28;20097;-67
2021/08/24 09:17:04;;;;;;;4.97;2.95;;;31.00;93.80;;;;;;4146262;28;20058;-67
2021/08/24 09:19:12;;;;;;;7.85;3.10;;;31.10;93.80;;;;;;4129860;28;20058;-66
2021/08/24 09:21:45;;;;;;;6.47;3.78;;;31.10;94.30;;;;;;4146134;28;20587;-66
2021/08/24 09:23:52;;;;;;;5.57;3.00;;;31.20;94.60;;;;;;4138871;28;20358;-66
2021/08/24 09:26:09;;;;;;;5.03;2.70;;;31.10;94.90;;;;;;4138159;28;20046;-66
2021/08/24 09:28:21;;;;;;;4.97;2.60;;;30.90;95.40;;;;;;4129224;28;20078;-67
2021/08/24 09:30:26;;;;;;;3.60;2.17;;;30.70;95.70;;;;;;4114057;28;20600;-67
2021/08/24 09:32:30;;;;;;;5.43;2.50;;;30.50;95.70;;;;;;4145993;28;20106;-66
2021/08/24 09:34:44;;;;;;;6.50;2.67;;;30.70;95.60;;;;;;4120694;28;20046;-66
2021/08/24 09:36:49;;;;;;;4.68;2.90;;;30.70;95.70;;;;;;4108722;28;20062;-67
2021/08/24 09:38:56;;;;;;;5.28;3.30;;;30.60;96.30;;;;;;4131055;28;20054;-67
2021/08/24 09:41:17;;;;;;;4.68;3.42;;;30.50;97.30;;;;;;4085770;28;20048;-66
2021/08/24 09:43:32;;;;;;;9.15;4.75;;;30.50;97.80;;;;;;4175741;28;20069;-67
2021/08/24 09:45:36;;;;;;;8.07;4.50;;;30.50;97.70;;;;;;4174008;28;20128;-67
2021/08/24 09:47:41;;;;;;;7.60;4.70;;;30.60;98.20;;;;;;4162401;28;20075;-67
2021/08/24 09:49:45;;;;;;;9.07;5.30;;;30.70;97.90;;;;;;4157192;28;20063;-67
2021/08/24 09:51:52;;;;;;;10.18;7.22;;;30.80;99.10;;;;;;4157567;28;20052;-67
2021/08/24 09:53:57;;;;;;;8.77;5.75;;;30.90;99.30;;;;;;4158003;28;20049;-68
2021/08/24 09:56:05;;;;;;;12.88;7.00;;;30.90;99.90;;;;;;4159990;28;20045;-68
2021/08/24 09:58:10;;;;;;;9.45;5.15;;;30.90;99.90;;;;;;4177455;28;20053;-67
2021/08/24 10:00:37;;;;;;;11.10;6.13;;;30.80;99.90;;;;;;4131718;28;20050;-66
2021/08/24 10:02:45;;;;;;;30.63;17.60;;;30.60;99.90;;;;;;4133110;28;20513;-67
2021/08/24 10:04:54;;;;;;;29.90;18.27;;;30.50;99.90;;;;;;4134952;28;20151;-67
2021/08/24 10:07:03;;;;;;;28.27;16.00;;;30.40;99.90;;;;;;4118860;28;20058;-65
2021/08/24 10:09:37;;;;;;;20.63;12.15;;;30.60;99.90;;;;;;4137008;28;20319;-67
2021/08/24 10:11:41;;;;;;;16.73;10.75;;;30.70;99.90;;;;;;4142529;28;20038;-67
2021/08/24 10:13:46;;;;;;;13.75;9.10;;;30.80;99.90;;;;;;4145013;28;20040;-67
2021/08/24 10:15:51;;;;;;;9.68;5.82;;;30.80;99.90;;;;;;4160969;28;20288;-67
2021/08/24 10:18:08;;;;;;;9.85;5.63;;;30.80;99.90;;;;;;4158590;28;20991;-66
2021/08/24 10:20:26;;;;;;;6.15;4.47;;;30.80;99.90;;;;;;4143458;28;20108;-67
2021/08/24 10:22:34;;;;;;;5.13;4.05;;;30.70;99.90;;;;;;4160774;28;20064;-67
2021/08/24 10:24:41;;;;;;;5.57;3.72;;;30.80;99.90;;;;;;4159426;28;20041;-68
2021/08/24 10:26:45;;;;;;;5.32;3.90;;;30.80;99.90;;;;;;4145208;28;20407;-66
2021/08/24 10:28:57;;;;;;;5.85;4.25;;;30.70;99.90;;;;;;4096199;28;20530;-67
2021/08/24 10:31:16;;;;;;;5.10;3.63;;;30.60;99.90;;;;;;4090720;28;20489;-68
2021/08/24 10:33:34;;;;;;;5.95;3.65;;;30.70;99.90;;;;;;4136273;28;20054;-67
2021/08/24 10:35:39;;;;;;;7.13;4.22;;;30.60;99.90;;;;;;4134357;28;20073;-68
2021/08/24 10:37:47;;;;;;;5.85;3.47;;;30.60;99.90;;;;;;4135987;28;20524;-67
2021/08/24 10:40:07;;;;;;;8.77;4.15;;;30.60;99.90;;;;;;4136630;28;20051;-67
2021/08/24 10:42:28;;;;;;;8.00;3.97;;;30.60;99.90;;;;;;4136977;28;20050;-68
2021/08/24 10:44:53;;;;;;;6.88;3.45;;;30.60;99.90;;;;;;4137037;28;20519;-68
2021/08/24 10:47:02;;;;;;;5.90;3.47;;;30.60;99.90;;;;;;4137778;28;20416;-67
2021/08/24 10:49:06;;;;;;;8.18;4.45;;;30.60;99.90;;;;;;4120969;28;20575;-66
2021/08/24 10:51:33;;;;;;;8.00;4.18;;;30.60;99.90;;;;;;4133540;28;20058;-66
2021/08/24 10:53:58;;;;;;;6.13;4.00;;;30.50;99.90;;;;;;4129097;28;20042;-66
2021/08/24 10:56:15;;;;;;;7.97;4.10;;;30.60;99.90;;;;;;4128781;28;20191;-66
2021/08/24 10:58:30;;;;;;;6.38;4.13;;;30.60;99.90;;;;;;4135784;28;20045;-67
2021/08/24 11:00:53;;;;;;;7.38;4.20;;;30.60;99.90;;;;;;4167481;28;20075;-67
2021/08/24 11:03:19;;;;;;;11.25;4.53;;;30.50;99.90;;;;;;4209388;28;20055;-67
2021/08/24 11:05:36;;;;;;;7.70;4.97;;;30.50;99.90;;;;;;4195575;28;20051;-67
2021/08/24 11:08:07;;;;;;;9.60;5.13;;;30.50;99.90;;;;;;4196872;28;20049;-66
2021/08/24 11:10:35;;;;;;;9.57;4.90;;;30.50;99.90;;;;;;4203730;28;20052;-67